Search for airport 
image banner adimage banner adimage banner ad
image banner ad

CL97 - Scripps Mercy Hospital

Located in San Diego, United States

ICAO - CL97, IATA -

Data provided by Airmate  

General information

Coordinates: N32°45'5" W117°9'38"
Elevation is 330 feet MSL.
Magnetic variation is 13° East
View others Airports in California

Operational data

Special qualification required
Current time UTC:
Current local time:
Weather at : KSAN - San Diego Intl ( 3 km )
METAR: KSAN 210951Z 30003KT 10SM OVC013 19/14 A2994 RMK AO2 SLP139 T01890144
TAF: KSAN 210851Z 2109/2212 VRB05KT P6SM BKN012 FM212000 29010KT P6SM SCT013 FM220200 30006KT P6SM BKN012
View NOTAMs / SUP AIP / TFR affecting this airport [VIEW]
Communications frequencies: [VIEW]

Runways:

Airport contact information

Address: San Diego United States

Satellite view of CL97